Time;durP1;ratioP1;P1;durP2;ratioP2;P2;SDS_P1;SDS_P2;PMS_P1;PMS_P2;Temp;Humidity;BMP_temperature;BMP_pressure;BME280_temperature;BME280_humidity;BME280_pressure;Samples;Min_cycle;Max_cycle;Signal;HPM_P1;HPM_P2
2021/10/08 00:00:21;;;;;;;10.02;8.73;;;;;;;29.66;75.58;100393.13;5083507;27;69330;-33
2021/10/08 00:02:55;;;;;;;10.10;9.27;;;;;;;29.69;75.61;100392.69;5080582;27;67031;-33
2021/10/08 00:05:26;;;;;;;11.02;8.73;;;;;;;29.70;75.95;100397.06;5086913;27;69496;-33
2021/10/08 00:08:02;;;;;;;9.40;8.52;;;;;;;29.71;76.03;100400.59;5072853;27;65428;-32
2021/10/08 00:10:35;;;;;;;9.20;8.40;;;;;;;29.71;76.24;100396.00;5088082;27;69562;-32
2021/10/08 00:13:11;;;;;;;10.25;9.15;;;;;;;29.64;75.83;100394.41;5087918;27;66263;-33
2021/10/08 00:16:05;;;;;;;13.40;10.75;;;;;;;29.73;76.44;100404.72;5086267;27;70217;-32
2021/10/08 00:19:23;;;;;;;16.83;11.00;;;;;;;29.57;76.20;100399.84;5076237;27;65659;-32
2021/10/08 00:22:17;;;;;;;22.38;11.80;;;;;;;29.76;76.67;100409.66;5076143;27;70485;-33
2021/10/08 00:24:59;;;;;;;17.88;10.20;;;;;;;29.49;76.30;100359.59;5082083;27;66788;-33
2021/10/08 00:27:44;;;;;;;20.35;11.10;;;;;;;29.83;76.99;100418.53;5074278;27;69542;-33
2021/10/08 00:30:36;;;;;;;19.08;10.50;;;;;;;29.82;76.85;100419.59;5085363;27;65582;-33
2021/10/08 00:33:48;;;;;;;12.02;9.55;;;;;;;29.69;76.18;100403.50;5082898;27;69316;-33
2021/10/08 00:37:15;;;;;;;12.77;9.20;;;;;;;29.82;76.24;100419.59;5076424;27;65381;-33
2021/10/08 00:40:48;;;;;;;10.98;8.85;;;;;;;29.76;76.78;100412.38;5080127;27;69059;-34
2021/10/08 00:44:15;;;;;;;9.60;8.63;;;;;;;29.75;76.59;100429.63;5064954;27;66782;-33
2021/10/08 00:47:13;;;;;;;9.75;8.85;;;;;;;29.82;76.69;100419.59;4972495;28;69755;-33
2021/10/08 00:50:38;;;;;;;10.73;8.98;;;;;;;29.67;76.57;100408.31;5012979;28;66602;-33
2021/10/08 00:54:32;;;;;;;9.05;8.55;;;;;;;29.75;76.21;100435.03;5022169;28;70128;-33
2021/10/08 00:57:33;;;;;;;9.68;8.70;;;;;;;29.82;75.92;100435.81;5017792;28;66185;-33
2021/10/08 01:00:40;;;;;;;11.75;9.07;;;;;;;29.86;76.19;100440.75;5029657;28;68803;-33
2021/10/08 01:03:48;;;;;;;10.75;9.02;;;;;;;29.89;75.70;100440.31;5001590;28;64506;-33
2021/10/08 01:07:05;;;;;;;9.98;9.02;;;;;;;29.90;75.54;100453.63;4995819;28;69862;-33
2021/10/08 01:10:23;;;;;;;8.68;7.88;;;;;;;29.88;75.71;100449.47;4993492;28;64189;-33
2021/10/08 01:13:41;;;;;;;8.07;7.35;;;;;;;29.93;75.50;100452.34;5017437;28;69882;-33
2021/10/08 01:17:14;;;;;;;7.80;7.15;;;;;;;29.58;75.64;100385.28;5024706;28;66110;-32
2021/10/08 01:24:24;;;;;;;9.27;7.22;;;;;;;29.97;76.31;100454.34;5034129;28;66484;-35
2021/10/08 01:27:39;;;;;;;9.20;6.30;;;;;;;29.64;75.57;100400.63;5045338;28;70275;-33
2021/10/08 01:31:07;;;;;;;7.63;5.88;;;;;;;29.93;76.38;100468.56;4958294;28;65912;-33
2021/10/08 01:34:26;;;;;;;8.02;6.35;;;;;;;29.99;75.54;100475.78;4996947;28;70244;-34
2021/10/08 01:38:00;;;;;;;6.38;5.97;;;;;;;29.96;75.57;100478.94;5028780;28;66484;-33
2021/10/08 01:41:42;;;;;;;7.35;6.65;;;;;;;30.06;75.11;100484.63;5005374;28;70213;-34
2021/10/08 01:45:12;;;;;;;12.40;6.50;;;;;;;29.97;75.90;100491.41;5006853;28;66108;-34
2021/10/08 01:48:30;;;;;;;6.55;6.00;;;;;;;30.03;75.49;100482.38;5027686;28;70214;-34
2021/10/08 01:51:38;;;;;;;6.47;5.88;;;;;;;29.99;75.36;100481.19;5015387;28;66299;-34
2021/10/08 01:55:39;;;;;;;6.13;5.63;;;;;;;29.95;75.65;100496.19;5028494;28;70010;-34
2021/10/08 01:59:29;;;;;;;6.43;5.80;;;;;;;30.00;75.27;100496.34;5029993;28;66073;-37
2021/10/08 02:03:03;;;;;;;8.10;4.88;;;;;;;30.07;75.02;100505.25;5015474;28;69951;-34
2021/10/08 02:06:01;;;;;;;10.18;4.57;;;;;;;30.08;74.96;100508.78;5031150;28;66132;-33
2021/10/08 02:09:26;;;;;;;5.68;4.93;;;;;;;30.11;75.24;100503.72;5074946;27;70239;-33
2021/10/08 02:13:01;;;;;;;8.60;5.13;;;;;;;30.14;74.47;100511.41;5077242;27;65959;-34
2021/10/08 02:16:25;;;;;;;5.22;4.57;;;;;;;30.18;74.67;100515.31;5064471;27;70373;-34
2021/10/08 02:19:31;;;;;;;4.60;4.05;;;;;;;30.19;74.92;100516.97;5052193;27;66389;-34
2021/10/08 02:22:58;;;;;;;4.93;4.28;;;;;;;30.21;74.67;100520.28;4998410;28;69269;-34
2021/10/08 02:26:29;;;;;;;4.72;4.20;;;;;;;30.22;74.86;100530.06;5032965;28;66124;-33
2021/10/08 02:29:46;;;;;;;5.88;3.90;;;;;;;30.25;75.04;100528.81;5013906;28;70633;-31
2021/10/08 02:32:56;;;;;;;11.38;4.00;;;;;;;30.23;74.45;100529.03;5037084;28;66315;-33
2021/10/08 02:36:46;;;;;;;5.45;4.15;;;;;;;30.22;73.92;100521.97;5013468;28;70314;-32
2021/10/08 02:40:12;;;;;;;4.28;3.95;;;;;;;30.04;73.36;100470.53;5026602;28;66249;-33
2021/10/08 02:42:59;;;;;;;9.75;3.65;;;;;;;30.37;73.43;100523.47;5047141;28;70414;-33
2021/10/08 02:46:40;;;;;;;4.32;3.92;;;;;;;30.26;73.71;100516.94;5040244;28;66176;-33
2021/10/08 02:50:00;;;;;;;7.47;3.70;;;;;;;30.00;73.65;100461.19;5046114;28;69808;-34
2021/10/08 02:52:54;;;;;;;3.60;3.28;;;;;;;30.33;72.75;100528.50;5006753;28;66538;-33
2021/10/08 02:59:27;;;;;;;8.52;3.67;;;;;;;30.41;73.28;100530.09;5042857;27;66111;-35
2021/10/08 03:02:28;;;;;;;4.20;3.58;;;;;;;30.44;72.58;100507.97;5076120;27;70197;-34
2021/10/08 03:05:42;;;;;;;3.90;3.60;;;;;;;30.43;73.12;100506.34;5091257;27;65651;-34
2021/10/08 03:08:59;;;;;;;6.05;3.70;;;;;;;30.51;72.45;100500.63;5090523;27;71708;-35
2021/10/08 03:12:03;;;;;;;3.95;3.65;;;;;;;30.50;72.70;100507.91;5063572;27;66993;-34
2021/10/08 03:15:26;;;;;;;3.83;3.50;;;;;;;30.45;72.42;100498.81;5092283;27;69795;-37
2021/10/08 03:18:30;;;;;;;6.90;3.40;;;;;;;30.53;72.38;100484.97;5057900;27;65567;-34
2021/10/08 03:21:57;;;;;;;4.57;3.50;;;;;;;30.55;72.54;100472.03;5070139;27;69377;-34
2021/10/08 03:24:55;;;;;;;6.80;3.72;;;;;;;30.57;72.08;100467.22;5056531;27;65493;-34
2021/10/08 03:27:51;;;;;;;4.20;3.72;;;;;;;30.59;72.37;100456.16;5092124;27;70773;-38
2021/10/08 03:30:54;;;;;;;4.80;4.18;;;;;;;30.62;72.35;100458.41;5058284;27;66092;-33
2021/10/08 03:33:59;;;;;;;4.55;3.70;;;;;;;30.64;72.13;100454.41;5035043;27;70122;-33
2021/10/08 03:37:17;;;;;;;4.82;3.70;;;;;;;30.15;71.71;100382.41;5044424;27;65545;-34
2021/10/08 03:40:31;;;;;;;6.90;4.00;;;;;;;30.64;71.58;100443.59;5086017;27;70009;-34
2021/10/08 03:44:09;;;;;;;5.55;3.95;;;;;;;30.71;71.56;100441.63;5066066;27;43728;-38
2021/10/08 03:47:00;;;;;;;4.95;3.97;;;;;;;30.70;71.85;100448.09;5028031;28;70746;-34
2021/10/08 03:49:48;;;;;;;10.10;4.25;;;;;;;30.37;71.30;100385.44;5042053;28;65891;-34
2021/10/08 03:52:37;;;;;;;5.40;3.58;;;;;;;30.69;71.29;100435.59;5060583;27;69613;-33
2021/10/08 03:55:23;;;;;;;4.25;3.78;;;;;;;30.68;71.83;100433.97;5016342;28;66654;-34
2021/10/08 03:58:19;;;;;;;10.07;3.38;;;;;;;30.71;71.31;100436.22;5016199;28;69543;-34
2021/10/08 04:01:11;;;;;;;4.53;3.33;;;;;;;30.76;71.39;100440.09;5039557;28;66509;-34
2021/10/08 04:03:56;;;;;;;9.70;3.78;;;;;;;30.78;71.36;100432.59;5042208;28;70181;-38
2021/10/08 04:06:45;;;;;;;4.18;3.50;;;;;;;30.78;70.75;100432.59;5054159;28;66236;-34
2021/10/08 04:09:49;;;;;;;3.75;3.42;;;;;;;30.83;71.31;100424.63;5048194;28;71512;-35
2021/10/08 04:12:48;;;;;;;3.17;2.95;;;;;;;30.82;71.07;100418.38;5036719;28;65430;-34
2021/10/08 04:15:31;;;;;;;3.60;3.30;;;;;;;30.85;70.50;100434.16;4996323;28;70581;-34
2021/10/08 04:18:46;;;;;;;3.67;3.33;;;;;;;30.88;70.67;100427.47;5046974;28;66152;-34
2021/10/08 04:21:22;;;;;;;3.58;3.38;;;;;;;30.93;70.85;100419.47;5062774;27;69722;-40
2021/10/08 04:23:58;;;;;;;4.28;3.20;;;;;;;30.93;71.17;100420.31;5060863;27;66356;-35
2021/10/08 04:26:49;;;;;;;3.47;3.17;;;;;;;30.98;69.96;100405.22;5042940;28;70266;-34
2021/10/08 04:29:41;;;;;;;4.43;3.97;;;;;;;31.01;70.67;100400.19;5044899;28;66197;-36
2021/10/08 04:32:37;;;;;;;3.92;3.53;;;;;;;30.94;70.45;100391.31;5045804;28;70266;-34
2021/10/08 04:35:20;;;;;;;6.88;3.67;;;;;;;30.98;70.37;100386.25;5045664;28;65953;-34
2021/10/08 04:37:55;;;;;;;3.88;3.42;;;;;;;30.91;70.31;100372.84;5021243;28;70211;-34
2021/10/08 04:40:34;;;;;;;3.90;3.55;;;;;;;31.03;69.80;100397.22;5026155;28;66817;-34
2021/10/08 04:43:09;;;;;;;3.95;3.40;;;;;;;30.98;69.98;100379.00;5043910;28;70496;-34
2021/10/08 04:45:47;;;;;;;8.77;2.90;;;;;;;31.03;69.26;100379.09;5031713;28;65871;-34
2021/10/08 04:48:25;;;;;;;4.57;2.88;;;;;;;31.00;68.22;100357.88;5034294;28;70053;-34
2021/10/08 04:51:00;;;;;;;3.03;2.75;;;;;;;30.99;69.08;100369.78;5046498;28;66564;-34
2021/10/08 04:53:38;;;;;;;2.97;2.78;;;;;;;31.04;68.99;100372.63;5026043;28;69889;-34
2021/10/08 04:56:26;;;;;;;3.30;3.00;;;;;;;31.05;69.02;100358.03;5019327;28;65897;-35
2021/10/08 04:59:02;;;;;;;4.75;3.22;;;;;;;31.10;69.45;100349.19;5028336;28;69751;-34
2021/10/08 05:01:45;;;;;;;9.52;3.85;;;;;;;31.14;70.40;100348.47;5019833;28;66378;-35
2021/10/08 05:04:28;;;;;;;4.90;3.58;;;;;;;31.16;70.87;100343.66;5012524;28;70562;-39
2021/10/08 05:07:01;;;;;;;4.68;2.97;;;;;;;31.22;71.02;100355.44;5009538;28;65666;-35
2021/10/08 05:09:38;;;;;;;3.30;3.00;;;;;;;31.12;70.48;100328.94;5038186;28;69177;-33
2021/10/08 05:12:15;;;;;;;7.30;3.00;;;;;;;31.27;70.22;100343.91;5028531;28;65779;-34
2021/10/08 05:14:53;;;;;;;9.20;3.35;;;;;;;31.05;70.42;100298.44;5022527;28;70803;-33
2021/10/08 05:17:27;;;;;;;21.05;4.03;;;;;;;31.36;70.63;100337.09;5000963;28;66240;-33
2021/10/08 05:20:10;;;;;;;31.30;3.92;;;;;;;31.44;70.76;100336.72;5020053;28;70211;-36
2021/10/08 05:22:56;;;;;;;16.20;3.70;;;;;;;31.19;70.80;100273.81;5001679;28;65229;-37
2021/10/08 05:25:40;;;;;;;2.88;2.42;;;;;;;31.64;70.49;100327.41;5032699;28;69194;-37
2021/10/08 05:28:14;;;;;;;6.97;2.72;;;;;;;31.70;70.33;100329.16;5002153;28;66653;-37
2021/10/08 05:31:08;;;;;;;8.98;3.20;;;;;;;31.77;70.10;100327.13;5049819;28;69361;-36
2021/10/08 05:33:51;;;;;;;7.53;3.15;;;;;;;31.81;69.98;100315.53;5024906;28;66315;-36
2021/10/08 05:36:32;;;;;;;6.07;3.13;;;;;;;31.90;69.54;100317.88;4999458;28;69277;-37
2021/10/08 05:39:22;;;;;;;6.57;2.95;;;;;;;31.92;69.80;100322.03;5029899;28;66399;-36
2021/10/08 05:42:17;;;;;;;4.50;2.72;;;;;;;31.97;69.45;100310.47;5028274;28;70179;-36
2021/10/08 05:44:59;;;;;;;5.22;2.78;;;;;;;31.99;69.40;100309.16;5032581;28;66472;-36
2021/10/08 05:47:38;;;;;;;6.20;2.90;;;;;;;32.02;69.41;100295.13;5011780;28;69955;-37
2021/10/08 05:50:14;;;;;;;3.63;2.70;;;;;;;32.07;69.59;100296.25;5030644;28;66608;-36
2021/10/08 05:52:45;;;;;;;4.53;2.75;;;;;;;32.10;69.07;100291.19;4997530;28;69253;-37
2021/10/08 05:55:24;;;;;;;3.00;2.80;;;;;;;32.15;68.97;100283.16;5031406;28;66839;-36
2021/10/08 05:58:01;;;;;;;2.72;2.53;;;;;;;32.16;69.05;100281.25;5028977;28;70104;-36
2021/10/08 06:00:38;;;;;;;3.08;2.70;;;;;;;31.84;69.03;100222.03;5013606;28;66688;-36
2021/10/08 06:03:20;;;;;;;2.35;2.20;;;;;;;32.23;69.41;100271.06;5029631;28;70193;-36
2021/10/08 06:06:01;;;;;;;4.28;2.30;;;;;;;32.25;68.74;100263.50;5026522;28;66455;-37
2021/10/08 06:08:39;;;;;;;3.67;2.53;;;;;;;32.29;68.94;100259.25;5033826;28;70805;-36
2021/10/08 06:11:26;;;;;;;3.08;2.17;;;;;;;32.31;68.67;100267.97;5001921;28;65820;-36
2021/10/08 06:14:15;;;;;;;2.63;2.10;;;;;;;32.33;68.76;100262.28;5019340;28;68811;-36
2021/10/08 06:17:25;;;;;;;6.63;2.35;;;;;;;32.31;68.34;100240.81;5016638;28;65390;-36
2021/10/08 06:20:07;;;;;;;3.25;2.20;;;;;;;32.36;68.17;100243.63;5015847;28;70029;-36
2021/10/08 06:23:02;;;;;;;2.38;2.10;;;;;;;32.42;68.32;100250.78;5016124;28;66700;-36
2021/10/08 06:25:50;;;;;;;2.30;2.10;;;;;;;32.39;68.03;100231.44;5028479;28;69876;-36
2021/10/08 06:28:46;;;;;;;2.40;2.20;;;;;;;32.46;67.98;100232.97;5032863;28;66497;-36
2021/10/08 06:31:31;;;;;;;3.58;2.22;;;;;;;32.46;68.14;100229.44;5032479;28;70136;-36
2021/10/08 06:34:12;;;;;;;2.08;1.88;;;;;;;32.55;68.10;100240.72;5031044;28;65531;-44
2021/10/08 06:37:06;;;;;;;4.10;1.80;;;;;;;32.56;67.76;100245.88;5028388;28;69714;-36
2021/10/08 06:39:54;;;;;;;2.45;2.08;;;;;;;32.25;67.49;100182.91;5018345;28;65034;-36
2021/10/08 06:42:55;;;;;;;;;;;;;;;32.31;68.13;100235.38;5022121;28;70590;-36
2021/10/08 06:46:05;;;;;;;6.47;2.10;;;;;;;32.57;67.30;100233.97;5030471;28;65568;-37
2021/10/08 06:48:57;;;;;;;2.15;1.73;;;;;;;32.60;67.20;100229.94;5014111;28;70792;-37
2021/10/08 06:51:54;;;;;;;1.70;1.60;;;;;;;32.60;67.03;100233.47;5028707;28;67288;-38
2021/10/08 06:54:51;;;;;;;2.00;1.90;;;;;;;32.65;67.21;100240.84;5034600;28;70334;-38
2021/10/08 06:57:47;;;;;;;1.88;1.50;;;;;;;32.63;67.20;100232.97;5028938;28;66320;-37
2021/10/08 07:01:23;;;;;;;3.60;1.58;;;;;;;32.59;66.60;100239.13;5031079;28;69504;-36
2021/10/08 07:04:38;;;;;;;1.65;1.55;;;;;;;32.71;66.82;100229.03;5028783;28;65668;-38
2021/10/08 07:07:40;;;;;;;1.88;1.48;;;;;;;32.73;66.74;100243.16;5029093;28;70292;-38
2021/10/08 07:10:43;;;;;;;2.67;1.35;;;;;;;32.73;66.38;100226.84;5026258;28;66848;-37
2021/10/08 07:13:54;;;;;;;3.42;1.02;;;;;;;32.76;66.25;100223.63;5027471;28;70080;-37
2021/10/08 07:17:12;;;;;;;1.20;0.95;;;;;;;32.76;66.23;100220.91;5025640;28;65463;-37
2021/10/08 07:20:34;;;;;;;5.35;1.40;;;;;;;32.76;65.67;100220.91;5028891;28;70597;-37
2021/10/08 07:28:15;;;;;;;2.33;1.02;;;;;;;32.83;65.78;100201.75;5020944;28;69158;-38
2021/10/08 07:31:40;;;;;;;1.55;1.23;;;;;;;32.72;65.76;100201.59;5042426;28;66519;-39
2021/10/08 07:35:43;;;;;;;2.20;1.17;;;;;;;32.85;65.74;100196.91;5030171;28;69360;-37
2021/10/08 07:39:23;;;;;;;1.00;0.82;;;;;;;32.85;64.86;100208.59;5030165;28;66198;-39
2021/10/08 07:43:12;;;;;;;1.20;0.80;;;;;;;32.76;65.40;100207.34;5029143;28;69799;-36
2021/10/08 07:46:15;;;;;;;4.43;0.80;;;;;;;32.93;65.03;100207.31;5032615;28;65374;-38
2021/10/08 07:49:31;;;;;;;2.65;1.20;;;;;;;32.89;64.57;100204.28;5015621;28;70262;-38
2021/10/08 07:52:55;;;;;;;1.25;1.10;;;;;;;32.91;64.21;100212.19;5032799;28;66676;-39
2021/10/08 07:55:56;;;;;;;15.80;1.30;;;;;;;32.87;63.68;100208.31;5018342;28;69976;-38
2021/10/08 08:00:21;;;;;;;2.50;1.38;;;;;;;32.93;62.77;100219.03;5030152;28;66221;-38
2021/10/08 08:04:42;;;;;;;1.92;1.10;;;;;;;32.89;61.78;100209.72;5028571;28;70169;-37
2021/10/08 08:07:52;;;;;;;1.77;1.20;;;;;;;32.94;63.30;100207.06;5027070;28;66695;-37
2021/10/08 08:11:53;;;;;;;2.70;1.30;;;;;;;32.93;61.34;100207.31;5001310;28;69942;-38
2021/10/08 08:15:22;;;;;;;1.98;1.20;;;;;;;32.95;61.86;100213.31;5029155;28;65551;-37
2021/10/08 08:18:35;;;;;;;6.50;1.60;;;;;;;32.97;62.44;100207.66;5030875;28;69995;-36
2021/10/08 08:22:18;;;;;;;2.03;1.02;;;;;;;32.91;62.13;100213.00;5050105;27;66605;-36
2021/10/08 08:25:35;;;;;;;2.42;1.35;;;;;;;33.00;62.21;100218.03;5084101;27;43861;-38
2021/10/08 08:29:08;;;;;;;1.98;1.30;;;;;;;32.82;61.21;100209.09;5044719;27;69940;-37
2021/10/08 08:32:33;;;;;;;5.28;1.60;;;;;;;32.64;62.88;100212.88;5062989;28;66421;-37
2021/10/08 08:35:33;;;;;;;3.00;1.67;;;;;;;32.56;63.37;100210.56;5067166;27;70154;-37
2021/10/08 08:38:38;;;;;;;6.55;1.83;;;;;;;32.47;64.02;100215.59;5070769;27;65581;-38
2021/10/08 08:42:02;;;;;;;2.90;1.98;;;;;;;32.44;63.89;100224.22;5062842;27;70509;-37
2021/10/08 08:45:09;;;;;;;9.88;1.95;;;;;;;32.37;64.53;100223.53;5063538;27;65343;-38
2021/10/08 08:48:15;;;;;;;10.70;2.30;;;;;;;32.36;64.16;100215.66;5019968;27;69103;-38
2021/10/08 08:51:42;;;;;;;8.25;2.28;;;;;;;32.32;64.24;100215.34;5066133;27;66412;-38
2021/10/08 08:55:49;;;;;;;2.83;1.42;;;;;;;32.21;64.06;100227.09;5066578;27;70364;-37
2021/10/08 08:59:53;;;;;;;2.50;2.05;;;;;;;32.13;63.82;100243.78;5058059;27;66690;-39
2021/10/08 09:03:01;;;;;;;6.35;1.40;;;;;;;32.19;63.46;100240.06;5053563;27;70507;-38
2021/10/08 09:05:53;;;;;;;4.40;1.58;;;;;;;31.79;63.08;100186.72;5061662;27;66736;-36
2021/10/08 09:08:53;;;;;;;10.77;1.80;;;;;;;31.85;63.59;100202.00;5062636;27;70517;-36
2021/10/08 09:11:43;;;;;;;3.22;2.22;;;;;;;32.04;63.32;100229.78;5066840;27;66314;-36
2021/10/08 09:15:05;;;;;;;2.70;2.13;;;;;;;32.02;63.02;100240.84;5067879;27;70557;-37
2021/10/08 09:18:34;;;;;;;5.47;1.90;;;;;;;31.99;62.78;100246.78;5063039;27;66073;-37
2021/10/08 09:21:41;;;;;;;2.67;1.80;;;;;;;31.97;63.26;100240.75;5048347;28;69055;-37
2021/10/08 09:25:30;;;;;;;4.80;1.70;;;;;;;31.99;63.41;100249.50;5065482;27;64907;-37
2021/10/08 09:28:11;;;;;;;2.65;2.25;;;;;;;31.73;63.75;100201.22;5056109;27;69334;-38
2021/10/08 09:31:51;;;;;;;5.35;2.03;;;;;;;31.59;63.67;100206.94;5071609;27;65532;-38
2021/10/08 09:35:10;;;;;;;31.50;2.83;;;;;;;31.97;63.70;100250.78;5078779;27;70683;-39
2021/10/08 09:38:07;;;;;;;8.30;2.40;;;;;;;31.75;63.80;100190.97;5058293;28;66059;-38
2021/10/08 09:41:09;;;;;;;17.65;2.40;;;;;;;32.16;64.64;100256.84;5049322;28;70697;-43
2021/10/08 09:44:16;;;;;;;10.70;2.05;;;;;;;32.32;64.61;100257.91;5053673;28;68167;-39
2021/10/08 09:47:29;;;;;;;6.85;1.88;;;;;;;32.27;64.67;100266.81;5048753;28;69377;-39
2021/10/08 09:50:21;;;;;;;3.55;2.30;;;;;;;32.02;64.40;100216.44;5048861;28;65467;-39
2021/10/08 09:53:16;;;;;;;6.22;2.05;;;;;;;32.11;64.53;100216.88;5027077;28;70224;-39
2021/10/08 09:55:54;;;;;;;4.15;2.20;;;;;;;32.52;64.48;100279.22;5042891;28;66532;-39
2021/10/08 09:58:53;;;;;;;4.28;2.38;;;;;;;32.46;64.33;100284.56;5052433;28;70058;-39
2021/10/08 10:01:49;;;;;;;7.45;2.47;;;;;;;32.53;64.46;100286.28;5048968;28;66347;-39
2021/10/08 10:05:01;;;;;;;3.17;2.35;;;;;;;32.28;64.55;100239.41;5043493;28;69994;-39
2021/10/08 10:08:15;;;;;;;2.83;2.50;;;;;;;32.55;64.81;100289.59;5045169;28;65385;-39
2021/10/08 10:10:56;;;;;;;5.63;2.75;;;;;;;32.57;64.63;100293.69;5042775;28;69587;-39
2021/10/08 10:13:38;;;;;;;6.47;2.20;;;;;;;32.52;64.48;100290.06;5039922;28;66020;-39
2021/10/08 10:16:29;;;;;;;6.80;2.53;;;;;;;32.59;64.43;100302.41;5057354;28;69099;-39
2021/10/08 10:19:07;;;;;;;4.15;2.70;;;;;;;32.60;64.32;100303.25;5045512;28;65555;-39
2021/10/08 10:22:06;;;;;;;5.30;3.00;;;;;;;32.59;64.18;100299.69;5054735;28;69575;-39
2021/10/08 10:24:58;;;;;;;4.72;3.03;;;;;;;32.57;64.52;100303.72;5057642;27;65781;-39
2021/10/08 10:27:40;;;;;;;3.22;2.88;;;;;;;32.59;64.14;100313.25;5044527;28;70265;-39
2021/10/08 10:30:37;;;;;;;2.42;2.22;;;;;;;32.57;64.01;100310.00;5052777;28;66299;-39
2021/10/08 10:33:18;;;;;;;3.47;3.17;;;;;;;32.57;64.38;100306.44;5033264;28;69317;-39
2021/10/08 10:36:47;;;;;;;2.60;2.40;;;;;;;32.41;64.33;100308.84;5044221;28;66251;-39
2021/10/08 10:39:49;;;;;;;3.28;2.58;;;;;;;32.52;64.57;100311.78;5042375;28;70450;-39
2021/10/08 10:43:08;;;;;;;3.08;2.78;;;;;;;32.52;64.40;100318.03;5046715;28;65669;-39
2021/10/08 10:50:10;;;;;;;3.05;2.80;;;;;;;32.07;64.49;100272.69;5049538;28;66016;-39
2021/10/08 10:52:59;;;;;;;3.22;2.92;;;;;;;32.40;64.69;100331.66;5049156;28;70281;-39
2021/10/08 10:55:55;;;;;;;3.40;3.10;;;;;;;32.43;64.98;100335.75;5045219;28;66842;-39
2021/10/08 10:58:44;;;;;;;4.05;3.38;;;;;;;32.43;64.81;100342.03;5037704;28;70122;-39
2021/10/08 11:01:32;;;;;;;4.07;3.35;;;;;;;32.41;64.86;100349.56;5054729;27;66230;-38
2021/10/08 11:04:32;;;;;;;3.60;3.30;;;;;;;32.11;65.24;100313.72;5026495;28;68631;-38
2021/10/08 11:07:58;;;;;;;3.78;3.10;;;;;;;32.26;65.16;100352.84;5046813;28;66331;-39
2021/10/08 11:10:44;;;;;;;3.95;3.50;;;;;;;32.37;64.71;100359.25;5042838;28;68610;-41
2021/10/08 11:14:15;;;;;;;3.75;3.45;;;;;;;32.23;65.26;100363.34;5044231;28;66052;-38
2021/10/08 11:17:42;;;;;;;3.95;3.65;;;;;;;32.27;64.76;100367.22;5044274;28;69941;-39
2021/10/08 11:20:44;;;;;;;7.90;4.30;;;;;;;32.33;65.16;100368.97;5057498;27;66483;-39
2021/10/08 11:23:40;;;;;;;7.70;4.53;;;;;;;32.26;65.21;100376.41;5063037;27;70033;-38
2021/10/08 11:26:28;;;;;;;4.63;4.25;;;;;;;32.30;65.53;100374.88;5035278;28;65797;-38
2021/10/08 11:29:18;;;;;;;5.43;4.93;;;;;;;32.18;65.62;100368.66;5047833;28;69493;-39
2021/10/08 11:32:14;;;;;;;5.03;4.53;;;;;;;32.25;65.34;100404.63;5047782;28;66349;-38
2021/10/08 11:35:19;;;;;;;5.82;5.32;;;;;;;32.24;65.44;100406.53;5049478;28;69378;-39
2021/10/08 11:38:32;;;;;;;5.45;4.45;;;;;;;32.10;66.09;100413.28;5045094;28;66152;-39
2021/10/08 11:41:26;;;;;;;12.98;6.03;;;;;;;31.87;67.25;100422.25;5008052;28;69448;-38
2021/10/08 11:44:25;;;;;;;11.48;6.30;;;;;;;31.86;67.76;100434.19;5041319;28;66064;-39
2021/10/08 11:53:46;;;;;;;7.03;6.53;;;;;;;31.60;68.39;100441.75;5049562;28;69704;-39
2021/10/08 11:57:12;;;;;;;17.17;8.25;;;;;;;31.54;68.95;100452.72;5049694;28;66368;-39
2021/10/08 11:59:59;;;;;;;12.70;7.82;;;;;;;31.54;69.30;100463.56;5040240;28;70077;-38
2021/10/08 12:03:19;;;;;;;8.02;7.20;;;;;;;31.47;70.64;100468.25;5031899;28;66349;-38
2021/10/08 12:06:44;;;;;;;14.82;8.32;;;;;;;31.50;70.87;100475.91;5023965;28;70354;-38
2021/10/08 12:10:21;;;;;;;9.95;7.45;;;;;;;31.44;71.02;100480.38;5045318;28;66195;-40
2021/10/08 12:13:20;;;;;;;17.67;7.82;;;;;;;31.53;70.87;100487.09;5048339;28;70130;-39
2021/10/08 12:16:22;;;;;;;8.85;7.43;;;;;;;31.49;70.99;100491.34;5054304;28;66913;-38
2021/10/08 12:19:49;;;;;;;13.68;8.77;;;;;;;31.01;71.84;100431.84;5049417;28;70471;-38
2021/10/08 12:22:44;;;;;;;9.10;7.82;;;;;;;31.51;71.58;100510.94;5040746;28;66236;-38
2021/10/08 12:25:44;;;;;;;14.15;7.78;;;;;;;31.51;71.27;100520.94;5042639;28;69642;-38
2021/10/08 12:28:54;;;;;;;8.10;7.47;;;;;;;31.11;71.48;100462.72;5043827;28;66542;-40
2021/10/08 12:32:04;;;;;;;7.38;6.72;;;;;;;31.46;71.20;100518.94;5022333;28;70357;-40
2021/10/08 12:35:08;;;;;;;10.40;6.82;;;;;;;31.47;70.50;100523.28;5042388;28;66662;-39
2021/10/08 12:38:17;;;;;;;8.85;6.97;;;;;;;31.47;70.51;100517.88;5039357;28;70076;-39
2021/10/08 12:41:01;;;;;;;6.55;5.90;;;;;;;31.43;69.84;100522.13;5046628;28;67446;-38
2021/10/08 12:43:48;;;;;;;7.03;6.53;;;;;;;31.40;70.25;100533.44;5039711;28;69959;-38
2021/10/08 12:47:18;;;;;;;6.45;5.95;;;;;;;31.39;69.65;100534.47;5041562;28;66561;-42
2021/10/08 12:50:28;;;;;;;5.15;4.75;;;;;;;31.22;69.24;100514.47;5040042;28;69290;-38
2021/10/08 12:53:30;;;;;;;4.82;4.43;;;;;;;31.36;69.26;100543.06;5047104;28;66782;-38
2021/10/08 12:56:34;;;;;;;5.32;4.85;;;;;;;31.26;69.82;100537.34;5043924;28;69776;-39
2021/10/08 12:59:26;;;;;;;9.45;4.80;;;;;;;31.32;69.43;100541.84;5025179;28;65607;-38
2021/10/08 13:02:15;;;;;;;5.05;4.60;;;;;;;31.27;69.87;100539.84;5028831;28;69465;-38
2021/10/08 13:05:22;;;;;;;5.65;5.15;;;;;;;31.29;70.08;100535.00;5046832;28;68045;-39
2021/10/08 13:08:41;;;;;;;5.07;4.10;;;;;;;31.23;69.81;100537.81;5042215;28;69462;-39
2021/10/08 13:11:57;;;;;;;6.45;4.00;;;;;;;31.05;69.72;100530.56;5039310;28;66429;-39
2021/10/08 13:14:55;;;;;;;6.72;4.82;;;;;;;31.12;70.18;100555.66;5000766;28;70372;-39
2021/10/08 13:18:40;;;;;;;5.75;4.65;;;;;;;31.05;69.99;100568.50;5009860;28;65561;-38
2021/10/08 13:21:45;;;;;;;7.18;4.70;;;;;;;31.07;70.47;100569.91;5020901;28;70077;-39
2021/10/08 13:24:33;;;;;;;11.93;5.32;;;;;;;31.05;70.27;100563.91;4995461;28;66155;-39
2021/10/08 13:27:23;;;;;;;6.18;4.85;;;;;;;31.04;71.00;100562.25;4962212;28;69752;-39
2021/10/08 13:30:22;;;;;;;5.47;4.78;;;;;;;31.01;70.21;100560.00;5003225;28;65449;-39
2021/10/08 13:32:59;;;;;;;7.85;4.88;;;;;;;30.94;71.00;100551.13;4984795;28;69216;-39
2021/10/08 13:36:11;;;;;;;6.03;5.43;;;;;;;30.97;70.48;100556.09;4988483;28;66369;-39
2021/10/08 13:39:20;;;;;;;5.32;4.82;;;;;;;30.98;71.43;100568.59;4989612;28;70258;-41
2021/10/08 13:42:12;;;;;;;5.38;4.53;;;;;;;30.95;70.93;100558.19;4995982;28;67502;-40
2021/10/08 13:45:13;;;;;;;5.43;5.03;;;;;;;30.97;71.35;100561.50;4996928;28;70717;-40
2021/10/08 13:48:31;;;;;;;7.10;6.45;;;;;;;30.92;71.23;100553.22;5016834;28;66265;-39
2021/10/08 13:51:41;;;;;;;7.60;6.80;;;;;;;30.93;71.19;100561.13;5022308;28;69417;-49
2021/10/08 13:55:23;;;;;;;7.57;6.82;;;;;;;30.82;71.23;100553.78;5017094;28;65168;-39
2021/10/08 13:58:34;;;;;;;9.50;7.75;;;;;;;30.82;71.12;100561.09;4990781;28;70412;-39
2021/10/08 14:01:25;;;;;;;10.20;7.85;;;;;;;30.59;71.21;100516.56;4992895;28;66926;-41
2021/10/08 14:04:51;;;;;;;11.43;8.70;;;;;;;30.87;71.06;100572.03;4988546;28;69298;-39
2021/10/08 14:08:13;;;;;;;12.23;8.35;;;;;;;30.76;71.26;100560.09;4993767;28;65898;-39
2021/10/08 14:10:51;;;;;;;12.27;8.50;;;;;;;30.87;71.95;100577.47;4994616;28;69303;-39
2021/10/08 14:14:03;;;;;;;12.50;8.27;;;;;;;30.76;71.84;100580.91;5000930;28;65236;-40
2021/10/08 14:16:48;;;;;;;18.42;6.95;;;;;;;30.90;71.60;100583.28;4994596;28;70604;-40
2021/10/08 14:19:26;;;;;;;9.23;7.45;;;;;;;30.91;72.42;100589.50;5005353;28;66566;-37
2021/10/08 14:22:09;;;;;;;7.38;6.50;;;;;;;30.59;72.46;100538.22;5006888;28;69794;-39
2021/10/08 14:24:43;;;;;;;7.18;6.57;;;;;;;30.96;71.60;100602.38;4996826;28;66658;-39
2021/10/08 14:27:42;;;;;;;7.45;6.70;;;;;;;30.99;72.04;100613.56;5009992;28;69782;-38
2021/10/08 14:30:44;;;;;;;6.68;6.07;;;;;;;30.96;71.65;100619.44;5007088;28;66231;-38
2021/10/08 14:33:23;;;;;;;6.32;5.75;;;;;;;30.99;71.46;100618.16;5012393;28;69770;-39
2021/10/08 14:36:19;;;;;;;5.57;5.18;;;;;;;30.99;71.25;100613.56;4995600;28;65459;-38